Aviation Digital Data Service (ADDS)

Output produced by TAFs form (1807 UTC 18 February 2018)
found at http://www.aviationweather.gov/adds/tafs/
 
KPNS 181753Z 18006KT 10SM FEW020 25/17 A3020 RMK AO2 SLP229 T02500172 10250 20167 58005
KPNS 181740Z 1818/1918 16007KT P6SM SCT020 SCT250 
     FM190600 13004KT 4SM BR SCT007 SCT250 
     FM190900 14004KT 2SM BR OVC007 
     TEMPO 1909/1913 1/2SM FG OVC003